Terminal Aerodrome Forecast
Issued by NWS Twin Cities, MN

Home | Current Version | Previous Version | Graphics & Text | Print | Product List | Glossary On
Versions: 1 2 3 4 5 6 7 8 9 10 11 12 13 14 15 16 17 18 19 20 21 22
599
FTUS43 KMPX 252320
TAFEAU
TAF
KEAU 252320Z 2600/2624 16012G19KT P6SM SCT020 BKN150
     FM260100 17004KT 6SM SHRA VCTS SCT050 OVC090CB
      TEMPO 2602/2606 2SM TSRA SCT030CB OVC050
     FM261000 VRB03KT P6SM OVC050
     FM261200 VRB03KT P6SM OVC025
     FM261800 36004KT P6SM OVC040=

USA.gov is the U.S. government's official web portal to all federal, state and local government web resources and services.